Time;durP1;ratioP1;P1;durP2;ratioP2;P2;SDS_P1;SDS_P2;PMS_P1;PMS_P2;Temp;Humidity;BMP_temperature;BMP_pressure;BME280_temperature;BME280_humidity;BME280_pressure;Samples;Min_cycle;Max_cycle;Signal;HPM_P1;HPM_P2
2021/03/31 00:01:31;;;;;;;16.23;7.20;;;12.40;99.90;;;;;;5043943;28;20549;-70
2021/03/31 00:03:58;;;;;;;12.57;7.80;;;12.30;99.90;;;;;;5041639;28;20476;-69
2021/03/31 00:06:25;;;;;;;8.57;6.03;;;12.40;99.90;;;;;;5039815;28;20453;-69
2021/03/31 00:08:52;;;;;;;16.80;6.57;;;12.40;99.90;;;;;;5044092;28;20565;-69
2021/03/31 00:11:18;;;;;;;13.87;7.60;;;12.40;99.90;;;;;;5047780;28;20451;-71
2021/03/31 00:13:45;;;;;;;17.70;8.43;;;12.40;99.90;;;;;;5045500;28;20470;-70
2021/03/31 00:16:12;;;;;;;11.40;7.80;;;12.40;99.90;;;;;;5040854;28;20496;-72
2021/03/31 00:18:40;;;;;;;10.27;6.87;;;12.20;99.90;;;;;;5025660;28;21266;-70
2021/03/31 00:21:07;;;;;;;13.30;6.70;;;12.10;99.90;;;;;;5044110;28;20458;-68
2021/03/31 00:23:34;;;;;;;11.77;6.60;;;12.00;99.90;;;;;;5045127;28;20486;-68
2021/03/31 00:26:01;;;;;;;18.33;8.23;;;12.00;99.90;;;;;;5051807;28;20471;-70
2021/03/31 00:28:50;;;;;;;11.33;6.50;;;12.00;99.90;;;;;;5042353;28;20461;-69
2021/03/31 00:31:16;;;;;;;14.33;6.17;;;11.90;99.90;;;;;;5046307;28;20455;-69
2021/03/31 00:33:44;;;;;;;7.57;6.70;;;11.90;99.90;;;;;;5043567;28;20980;-69
2021/03/31 00:36:10;;;;;;;17.37;8.60;;;11.90;99.90;;;;;;5034222;28;20555;-69
2021/03/31 00:38:37;;;;;;;11.47;9.10;;;11.90;99.90;;;;;;5038195;28;20466;-67
2021/03/31 00:41:05;;;;;;;16.47;9.10;;;11.90;99.90;;;;;;5032969;28;20908;-69
2021/03/31 00:43:32;;;;;;;13.77;6.73;;;11.80;99.90;;;;;;5050478;28;20446;-69
2021/03/31 00:45:59;;;;;;;15.93;10.23;;;11.80;99.90;;;;;;5038153;28;20483;-68
2021/03/31 00:48:26;;;;;;;14.13;8.67;;;11.70;99.90;;;;;;5023610;28;21007;-68
2021/03/31 00:50:55;;;;;;;16.53;7.97;;;11.60;99.90;;;;;;5042729;28;20537;-68
2021/03/31 00:53:24;;;;;;;10.80;6.80;;;11.60;99.90;;;;;;5042706;28;20509;-69
2021/03/31 00:55:51;;;;;;;17.63;6.90;;;11.50;99.90;;;;;;5041919;28;20525;-68
2021/03/31 00:58:18;;;;;;;18.17;8.23;;;11.50;99.90;;;;;;5046267;28;20437;-71
2021/03/31 01:00:44;;;;;;;11.77;6.90;;;11.40;99.90;;;;;;5049090;28;20487;-69
2021/03/31 01:03:11;;;;;;;14.13;7.90;;;11.50;99.90;;;;;;5029245;28;20987;-69
2021/03/31 01:05:38;;;;;;;15.17;6.87;;;11.40;99.90;;;;;;5038804;28;20483;-69
2021/03/31 01:08:06;;;;;;;17.27;10.20;;;11.40;99.90;;;;;;5041043;28;20451;-69
2021/03/31 01:10:36;;;;;;;16.17;8.47;;;11.40;99.90;;;;;;5040705;28;20456;-69
2021/03/31 01:13:28;;;;;;;14.50;6.37;;;11.40;99.90;;;;;;5046840;28;20930;-69
2021/03/31 01:16:00;;;;;;;21.80;8.13;;;11.40;99.90;;;;;;5025969;28;20517;-68
2021/03/31 01:18:32;;;;;;;10.10;7.40;;;11.30;99.90;;;;;;5043694;28;20459;-69
2021/03/31 01:21:40;;;;;;;19.60;7.70;;;11.20;99.90;;;;;;5047957;28;20546;-68
2021/03/31 01:24:42;;;;;;;10.67;6.87;;;11.30;99.90;;;;;;5048362;28;20462;-69
2021/03/31 01:27:16;;;;;;;13.67;7.77;;;11.20;99.90;;;;;;5044031;28;20527;-68
2021/03/31 01:30:03;;;;;;;15.07;6.90;;;11.10;99.90;;;;;;5041743;28;20542;-68
2021/03/31 01:32:50;;;;;;;15.43;7.23;;;11.00;99.90;;;;;;5041035;28;20932;-70
2021/03/31 01:35:19;;;;;;;13.90;8.20;;;10.90;99.90;;;;;;5053321;28;20437;-67
2021/03/31 01:37:50;;;;;;;16.43;8.23;;;10.80;99.90;;;;;;5043839;28;25267;-68
2021/03/31 01:40:19;;;;;;;20.37;8.70;;;10.80;99.90;;;;;;5040114;28;20461;-71
2021/03/31 01:42:51;;;;;;;17.27;8.67;;;10.90;99.90;;;;;;5045902;28;20558;-69
2021/03/31 01:45:20;;;;;;;10.40;6.47;;;10.70;99.90;;;;;;5057329;28;20574;-69
2021/03/31 01:47:48;;;;;;;15.57;7.87;;;10.70;99.90;;;;;;5042562;28;20913;-68
2021/03/31 01:50:15;;;;;;;17.30;7.40;;;10.70;99.90;;;;;;5048623;28;20521;-68
2021/03/31 01:52:44;;;;;;;10.40;6.30;;;10.70;99.90;;;;;;5057322;28;20502;-69
2021/03/31 01:55:15;;;;;;;25.93;9.40;;;10.60;99.90;;;;;;5059676;28;20459;-68
2021/03/31 01:57:43;;;;;;;11.43;7.70;;;10.50;99.90;;;;;;5046927;28;20492;-69
2021/03/31 02:00:13;;;;;;;10.70;6.77;;;10.40;99.90;;;;;;5048499;28;20901;-69
2021/03/31 02:02:41;;;;;;;13.80;7.10;;;10.50;99.90;;;;;;5038257;28;20472;-69
2021/03/31 02:05:11;;;;;;;11.23;6.30;;;10.40;99.90;;;;;;5046505;28;20438;-70
2021/03/31 02:07:40;;;;;;;15.37;6.20;;;10.30;99.90;;;;;;5040827;28;20532;-70
2021/03/31 02:10:11;;;;;;;20.67;7.37;;;10.30;99.90;;;;;;5041134;28;20832;-69
2021/03/31 02:12:39;;;;;;;8.00;6.40;;;10.40;99.90;;;;;;5043701;28;20595;-69
2021/03/31 02:15:08;;;;;;;15.43;7.67;;;10.40;99.90;;;;;;5042282;28;20430;-70
2021/03/31 02:17:35;;;;;;;14.67;7.53;;;10.40;99.90;;;;;;5043895;28;20509;-69
2021/03/31 02:20:03;;;;;;;9.10;5.70;;;10.50;99.90;;;;;;5048589;28;20969;-69
2021/03/31 02:22:31;;;;;;;14.80;6.20;;;10.50;99.90;;;;;;5043256;28;20451;-69
2021/03/31 02:24:58;;;;;;;12.30;6.20;;;10.40;99.90;;;;;;5045245;28;20426;-71
2021/03/31 02:27:26;;;;;;;13.03;6.80;;;10.30;99.90;;;;;;5045064;28;20879;-68
2021/03/31 02:29:53;;;;;;;10.73;6.53;;;10.40;99.90;;;;;;5043014;28;20492;-69
2021/03/31 02:32:22;;;;;;;9.57;6.70;;;10.20;99.90;;;;;;5028511;28;20478;-70
2021/03/31 02:34:52;;;;;;;15.87;6.40;;;10.20;99.90;;;;;;5042297;28;20552;-69
2021/03/31 02:37:20;;;;;;;25.83;8.10;;;10.10;99.90;;;;;;5056970;28;20479;-69
2021/03/31 02:39:48;;;;;;;12.13;6.43;;;10.00;99.90;;;;;;5047362;28;20512;-68
2021/03/31 02:42:17;;;;;;;14.53;7.70;;;9.90;99.90;;;;;;5044495;28;20490;-68
2021/03/31 02:44:48;;;;;;;13.93;6.80;;;9.90;99.90;;;;;;5044569;28;21174;-69
2021/03/31 02:47:17;;;;;;;11.97;6.53;;;10.00;99.90;;;;;;5048887;28;20461;-69
2021/03/31 02:49:47;;;;;;;16.00;7.53;;;10.00;99.90;;;;;;5042795;28;20468;-69
2021/03/31 02:52:14;;;;;;;13.00;6.43;;;9.90;99.90;;;;;;5049162;28;20571;-69
2021/03/31 02:54:42;;;;;;;12.90;5.77;;;9.80;99.90;;;;;;5026449;28;20462;-69
2021/03/31 02:57:10;;;;;;;14.60;7.53;;;9.80;99.90;;;;;;5041124;28;20588;-70
2021/03/31 02:59:40;;;;;;;13.67;8.70;;;9.90;99.90;;;;;;5043551;28;21154;-70
2021/03/31 03:02:09;;;;;;;20.30;8.30;;;9.70;99.90;;;;;;5041920;28;20433;-68
2021/03/31 03:04:37;;;;;;;12.00;7.00;;;9.60;99.90;;;;;;5046281;28;20422;-68
2021/03/31 03:07:04;;;;;;;12.93;7.30;;;9.60;99.90;;;;;;5041009;28;20881;-68
2021/03/31 03:09:31;;;;;;;10.73;7.10;;;9.40;99.90;;;;;;5057384;28;20987;-69
2021/03/31 03:11:58;;;;;;;10.47;7.20;;;9.60;99.90;;;;;;5048143;28;20513;-69
2021/03/31 03:14:26;;;;;;;8.70;5.00;;;9.60;99.90;;;;;;5047361;28;20421;-69
2021/03/31 03:16:52;;;;;;;10.03;7.63;;;9.60;99.90;;;;;;5045475;28;20834;-70
2021/03/31 03:19:20;;;;;;;13.73;6.43;;;9.60;99.90;;;;;;5052131;28;20501;-70
2021/03/31 03:21:48;;;;;;;14.10;7.90;;;9.50;99.90;;;;;;5057952;28;20841;-69
2021/03/31 03:24:16;;;;;;;12.83;7.30;;;9.60;99.90;;;;;;5044160;28;20478;-70
2021/03/31 03:26:44;;;;;;;11.40;6.57;;;9.50;99.90;;;;;;5049280;28;20512;-70
2021/03/31 03:29:11;;;;;;;15.87;8.30;;;9.50;99.90;;;;;;5052324;28;20546;-69
2021/03/31 03:31:38;;;;;;;14.73;9.40;;;9.50;99.90;;;;;;5046263;28;20447;-68
2021/03/31 03:34:09;;;;;;;14.37;7.23;;;9.30;99.90;;;;;;5046319;28;20560;-70
2021/03/31 03:36:40;;;;;;;11.87;6.80;;;9.30;99.90;;;;;;5041655;28;20487;-69
2021/03/31 03:39:07;;;;;;;13.57;6.03;;;9.40;99.90;;;;;;5050068;28;20481;-70
2021/03/31 03:41:33;;;;;;;13.60;6.73;;;9.30;99.90;;;;;;5044429;28;20479;-69
2021/03/31 03:44:00;;;;;;;12.07;8.50;;;9.30;99.90;;;;;;5043761;28;20459;-69
2021/03/31 03:46:31;;;;;;;9.40;5.57;;;9.40;99.90;;;;;;5038564;28;20452;-69
2021/03/31 03:48:59;;;;;;;15.33;6.97;;;9.40;99.90;;;;;;5047598;28;20857;-68
2021/03/31 03:51:26;;;;;;;8.97;5.90;;;9.30;99.90;;;;;;5045192;28;20588;-69
2021/03/31 03:53:54;;;;;;;17.53;7.27;;;9.20;99.90;;;;;;5051174;28;20791;-70
2021/03/31 03:56:22;;;;;;;9.53;6.37;;;9.30;99.90;;;;;;5051428;28;20514;-68
2021/03/31 03:58:48;;;;;;;16.20;7.17;;;9.20;99.90;;;;;;5048590;28;20661;-69
2021/03/31 04:01:15;;;;;;;11.07;6.20;;;9.20;99.90;;;;;;5054900;28;20477;-69
2021/03/31 04:03:48;;;;;;;14.43;8.93;;;9.20;99.90;;;;;;5052018;28;20512;-68
2021/03/31 04:06:15;;;;;;;11.90;7.43;;;9.20;99.90;;;;;;5049065;28;20628;-69
2021/03/31 04:08:42;;;;;;;11.63;5.80;;;9.20;99.90;;;;;;5047409;28;21136;-70
2021/03/31 04:11:09;;;;;;;14.80;5.80;;;9.10;99.90;;;;;;5030869;28;21454;-70
2021/03/31 04:13:36;;;;;;;11.50;8.10;;;9.10;99.90;;;;;;5036397;28;20465;-69
2021/03/31 04:16:06;;;;;;;13.00;7.37;;;9.10;99.90;;;;;;5044886;28;20503;-69
2021/03/31 04:18:35;;;;;;;9.43;5.23;;;9.10;99.90;;;;;;5044427;28;20456;-69
2021/03/31 04:21:02;;;;;;;10.33;5.73;;;9.00;99.90;;;;;;5043887;28;20542;-68
2021/03/31 04:23:29;;;;;;;13.60;6.30;;;9.00;99.90;;;;;;5051682;28;20528;-67
2021/03/31 04:25:57;;;;;;;15.10;6.30;;;8.90;99.90;;;;;;5046985;28;20524;-68
2021/03/31 04:28:27;;;;;;;14.87;6.27;;;8.90;99.90;;;;;;5047934;28;20457;-68
2021/03/31 04:30:55;;;;;;;13.33;7.03;;;9.00;99.90;;;;;;5046535;28;20457;-68
2021/03/31 04:33:23;;;;;;;12.17;7.90;;;9.00;99.90;;;;;;5049976;28;20878;-68
2021/03/31 04:35:51;;;;;;;12.43;6.50;;;9.00;99.90;;;;;;5044587;28;20437;-69
2021/03/31 04:38:18;;;;;;;17.40;7.00;;;9.00;99.90;;;;;;5046333;28;20430;-67
2021/03/31 04:40:53;;;;;;;7.50;5.40;;;9.00;99.90;;;;;;5028854;28;20433;-68
2021/03/31 04:43:20;;;;;;;15.47;6.97;;;9.00;99.90;;;;;;5048898;28;21146;-68
2021/03/31 04:45:48;;;;;;;9.90;6.70;;;8.80;99.90;;;;;;5058068;28;20446;-70
2021/03/31 04:48:15;;;;;;;15.80;6.70;;;8.80;99.90;;;;;;5058523;28;20457;-68
2021/03/31 04:50:41;;;;;;;11.30;7.30;;;8.80;99.90;;;;;;5021459;28;20429;-68
2021/03/31 04:53:08;;;;;;;8.87;6.20;;;8.80;99.90;;;;;;5050723;28;20608;-68
2021/03/31 04:55:35;;;;;;;13.67;7.10;;;8.80;99.90;;;;;;5026759;28;20433;-69
2021/03/31 04:58:02;;;;;;;20.97;8.27;;;8.80;99.90;;;;;;5031752;28;20991;-67
2021/03/31 05:00:29;;;;;;;12.40;6.20;;;8.80;99.90;;;;;;5044785;28;20591;-68
2021/03/31 05:02:56;;;;;;;11.00;7.10;;;8.90;99.90;;;;;;5027108;28;20555;-69
2021/03/31 05:05:23;;;;;;;29.20;8.13;;;8.80;99.90;;;;;;5029918;28;21246;-69
2021/03/31 05:07:50;;;;;;;14.40;7.70;;;8.80;99.90;;;;;;5048739;28;20580;-70
2021/03/31 05:10:17;;;;;;;22.17;7.30;;;8.80;99.90;;;;;;5050986;28;20549;-69
2021/03/31 05:12:44;;;;;;;11.10;7.90;;;8.80;99.90;;;;;;5053458;28;20466;-70
2021/03/31 05:15:11;;;;;;;7.93;5.63;;;8.90;99.90;;;;;;5039584;28;20492;-69
2021/03/31 05:17:37;;;;;;;13.90;6.27;;;8.80;99.90;;;;;;5035155;28;20474;-70
2021/03/31 05:20:06;;;;;;;10.50;5.90;;;8.80;99.90;;;;;;5051803;28;20460;-70
2021/03/31 05:22:33;;;;;;;10.93;6.10;;;8.70;99.90;;;;;;5052214;28;20492;-70
2021/03/31 05:25:00;;;;;;;12.10;6.80;;;8.80;99.90;;;;;;5048541;28;20465;-70
2021/03/31 05:27:26;;;;;;;15.37;9.17;;;8.90;99.90;;;;;;5041430;28;20942;-70
2021/03/31 05:29:53;;;;;;;10.87;5.77;;;8.90;99.90;;;;;;5049151;28;20459;-68
2021/03/31 05:32:20;;;;;;;15.37;5.90;;;8.90;99.90;;;;;;5037123;28;20459;-69
2021/03/31 05:34:47;;;;;;;10.10;7.83;;;8.90;99.90;;;;;;5043023;28;20577;-69
2021/03/31 05:37:14;;;;;;;10.20;7.50;;;8.90;99.90;;;;;;5034006;28;20613;-69
2021/03/31 05:39:41;;;;;;;12.77;7.57;;;8.90;99.90;;;;;;5051799;28;20521;-70
2021/03/31 05:42:09;;;;;;;16.00;7.03;;;8.90;99.90;;;;;;5050591;28;20494;-71
2021/03/31 05:44:36;;;;;;;10.33;7.50;;;9.00;99.90;;;;;;5051208;28;20529;-69
2021/03/31 05:47:04;;;;;;;18.10;8.20;;;9.10;99.90;;;;;;5049278;28;20502;-71
2021/03/31 05:49:31;;;;;;;14.37;6.43;;;9.10;99.90;;;;;;5055061;28;20480;-69
2021/03/31 05:51:58;;;;;;;16.33;7.37;;;9.40;99.90;;;;;;5039629;28;20558;-69
2021/03/31 05:54:25;;;;;;;11.40;7.20;;;9.60;99.90;;;;;;5056787;28;20551;-69
2021/03/31 05:56:52;;;;;;;19.83;6.73;;;9.90;99.90;;;;;;5053160;28;20514;-70
2021/03/31 05:59:19;;;;;;;12.53;6.50;;;10.00;99.90;;;;;;5054495;28;20459;-70
2021/03/31 06:01:47;;;;;;;19.70;7.13;;;10.30;99.90;;;;;;5056554;28;20576;-68
2021/03/31 06:04:16;;;;;;;18.27;7.87;;;10.50;99.90;;;;;;5056693;28;20433;-70
2021/03/31 06:06:43;;;;;;;9.73;6.50;;;11.10;99.90;;;;;;5052863;28;20476;-69
2021/03/31 06:09:11;;;;;;;9.27;6.57;;;11.60;99.90;;;;;;5035942;28;20437;-68
2021/03/31 06:11:50;;;;;;;17.80;6.50;;;11.50;99.90;;;;;;5067823;28;20433;-69
2021/03/31 06:14:29;;;;;;;12.67;7.40;;;11.70;99.90;;;;;;5064144;28;20542;-69
2021/03/31 06:17:05;;;;;;;14.07;7.37;;;12.10;99.90;;;;;;5055430;28;20482;-68
2021/03/31 06:19:32;;;;;;;22.30;8.20;;;12.30;99.90;;;;;;5058832;28;20483;-68
2021/03/31 06:22:07;;;;;;;22.00;7.87;;;12.70;99.90;;;;;;5057201;28;20459;-68
2021/03/31 06:24:42;;;;;;;14.10;8.00;;;13.20;99.90;;;;;;5051458;28;20451;-68
2021/03/31 06:27:10;;;;;;;17.60;7.47;;;13.60;99.90;;;;;;5054381;28;20487;-68
2021/03/31 06:29:43;;;;;;;12.83;7.57;;;14.20;99.90;;;;;;5055295;28;21013;-68
2021/03/31 06:32:17;;;;;;;18.70;8.80;;;14.30;99.90;;;;;;5057495;28;20445;-71
2021/03/31 06:35:01;;;;;;;13.73;7.43;;;14.50;99.90;;;;;;5054706;28;20527;-69
2021/03/31 06:37:30;;;;;;;10.27;6.90;;;14.60;99.90;;;;;;5052008;28;20629;-70
2021/03/31 06:39:57;;;;;;;22.80;8.87;;;14.60;99.90;;;;;;5056655;28;20455;-69
2021/03/31 06:42:36;;;;;;;12.93;7.60;;;14.70;99.90;;;;;;5062112;28;20465;-69
2021/03/31 06:45:10;;;;;;;16.07;10.23;;;15.10;99.90;;;;;;5056465;28;20454;-70
2021/03/31 06:47:41;;;;;;;15.07;8.60;;;15.50;99.90;;;;;;5054658;28;20458;-69
2021/03/31 06:50:10;;;;;;;17.20;8.80;;;15.50;99.90;;;;;;5053420;28;20471;-69
2021/03/31 06:52:52;;;;;;;15.10;8.17;;;15.90;99.90;;;;;;5052444;28;20558;-68
2021/03/31 06:55:19;;;;;;;15.37;9.87;;;16.60;99.90;;;;;;5059745;28;20451;-69
2021/03/31 06:57:52;;;;;;;23.40;10.90;;;17.20;99.90;;;;;;5056179;28;20487;-70
2021/03/31 07:00:25;;;;;;;15.30;9.00;;;17.80;99.90;;;;;;5058966;28;20904;-68
2021/03/31 07:02:54;;;;;;;28.13;9.53;;;18.30;99.90;;;;;;5052681;28;20968;-69
2021/03/31 07:05:22;;;;;;;18.80;9.20;;;18.90;99.90;;;;;;5053995;28;20456;-69
2021/03/31 07:07:48;;;;;;;17.67;8.73;;;19.30;99.90;;;;;;5052776;28;20550;-69
2021/03/31 07:10:16;;;;;;;29.63;8.83;;;19.90;99.90;;;;;;5051018;28;20842;-68
2021/03/31 07:12:44;;;;;;;16.70;8.67;;;20.50;98.00;;;;;;5057185;28;20562;-70
2021/03/31 07:15:14;;;;;;;12.17;8.00;;;20.80;95.90;;;;;;5049786;28;20964;-69
2021/03/31 07:17:43;;;;;;;27.10;8.40;;;21.00;95.50;;;;;;5057734;28;20493;-68
2021/03/31 07:20:11;;;;;;;24.60;11.67;;;21.10;92.30;;;;;;5054835;28;21140;-68
2021/03/31 07:22:38;;;;;;;21.50;11.07;;;20.70;91.40;;;;;;5055552;28;20503;-68
2021/03/31 07:25:07;;;;;;;18.80;11.27;;;20.40;91.20;;;;;;5054354;28;20466;-69
2021/03/31 07:27:34;;;;;;;26.70;9.40;;;20.30;90.70;;;;;;5055814;28;20480;-68
2021/03/31 07:30:07;;;;;;;13.73;9.03;;;20.30;89.30;;;;;;5053708;28;20452;-67
2021/03/31 07:32:52;;;;;;;14.90;8.80;;;20.20;88.20;;;;;;5056115;28;20537;-68
2021/03/31 07:35:21;;;;;;;17.97;8.37;;;20.40;89.00;;;;;;5049821;28;20512;-68
2021/03/31 07:37:48;;;;;;;10.43;7.13;;;20.50;84.90;;;;;;5050380;28;20719;-68
2021/03/31 07:40:16;;;;;;;17.67;8.87;;;20.70;82.00;;;;;;5053750;28;20463;-69
2021/03/31 07:42:47;;;;;;;18.03;7.43;;;20.50;81.70;;;;;;5057206;28;20466;-68
2021/03/31 07:45:16;;;;;;;14.07;7.63;;;20.50;79.40;;;;;;5058922;28;20513;-69
2021/03/31 07:47:44;;;;;;;11.40;7.43;;;20.40;79.80;;;;;;5064919;28;20547;-68
2021/03/31 07:50:13;;;;;;;13.53;7.93;;;20.90;79.90;;;;;;5081765;28;20458;-69
2021/03/31 07:52:54;;;;;;;13.93;8.30;;;21.30;78.80;;;;;;5055779;28;20471;-69
2021/03/31 07:55:31;;;;;;;12.80;7.10;;;21.70;75.80;;;;;;5056162;28;21174;-69
2021/03/31 07:58:21;;;;;;;18.47;8.40;;;22.20;75.30;;;;;;5054864;28;20549;-68
2021/03/31 08:01:01;;;;;;;15.90;8.03;;;22.80;72.00;;;;;;5051684;28;20455;-69
2021/03/31 08:03:29;;;;;;;10.40;7.43;;;23.90;68.50;;;;;;5051928;28;20527;-68
2021/03/31 08:06:04;;;;;;;15.20;8.40;;;24.60;65.40;;;;;;5057094;28;20864;-69
2021/03/31 08:08:31;;;;;;;12.77;7.80;;;25.50;60.70;;;;;;5051512;28;20833;-70
2021/03/31 08:10:59;;;;;;;9.37;7.10;;;26.20;57.00;;;;;;5050043;28;20531;-69
2021/03/31 08:13:27;;;;;;;8.40;5.03;;;26.60;56.30;;;;;;5054323;28;20460;-69
2021/03/31 08:15:54;;;;;;;11.30;5.60;;;26.90;49.70;;;;;;5059005;28;20447;-68
2021/03/31 08:18:21;;;;;;;7.73;5.90;;;26.80;47.20;;;;;;5051343;28;20451;-69
2021/03/31 08:20:49;;;;;;;7.00;5.10;;;27.00;46.30;;;;;;5052732;28;20502;-69
2021/03/31 08:23:48;;;;;;;7.70;5.00;;;27.40;43.90;;;;;;5040806;28;20455;-70
2021/03/31 08:26:31;;;;;;;7.90;5.10;;;26.50;44.40;;;;;;5053059;28;20482;-70
2021/03/31 08:28:58;;;;;;;7.80;4.90;;;27.10;44.20;;;;;;5059168;28;20482;-69
2021/03/31 08:31:27;;;;;;;6.93;5.00;;;28.00;43.40;;;;;;5052924;28;20454;-70
2021/03/31 08:33:53;;;;;;;10.47;5.40;;;28.60;43.00;;;;;;5049319;28;20482;-70
2021/03/31 08:36:20;;;;;;;14.30;5.90;;;28.80;40.80;;;;;;5038939;28;20535;-69
2021/03/31 08:38:51;;;;;;;10.73;5.80;;;29.10;41.30;;;;;;5053360;28;20533;-69
2021/03/31 08:41:20;;;;;;;11.60;7.33;;;29.40;40.30;;;;;;5057636;28;20455;-69
2021/03/31 08:43:47;;;;;;;16.67;6.53;;;29.70;39.30;;;;;;5061663;28;20947;-69
2021/03/31 08:46:27;;;;;;;10.50;6.70;;;29.60;39.10;;;;;;5055471;28;20487;-69
2021/03/31 08:48:54;;;;;;;9.47;5.67;;;29.60;39.40;;;;;;5057575;28;20451;-70
2021/03/31 08:51:21;;;;;;;14.47;6.33;;;29.90;39.40;;;;;;5056170;28;20458;-69
2021/03/31 08:53:48;;;;;;;10.27;5.67;;;30.10;38.40;;;;;;5052834;28;20472;-69
2021/03/31 08:56:20;;;;;;;6.70;4.83;;;30.60;38.60;;;;;;5048480;28;20483;-69
2021/03/31 08:58:48;;;;;;;8.43;5.50;;;30.90;38.40;;;;;;5052016;28;20520;-69
2021/03/31 09:01:25;;;;;;;12.10;6.43;;;31.50;36.70;;;;;;5051095;28;20467;-70
2021/03/31 09:03:52;;;;;;;9.30;6.10;;;31.70;39.10;;;;;;5050777;28;20462;-69
2021/03/31 09:06:19;;;;;;;10.63;5.93;;;31.60;36.80;;;;;;5048940;28;20566;-70
2021/03/31 09:08:47;;;;;;;8.80;6.07;;;31.40;36.20;;;;;;5050844;28;20462;-70
2021/03/31 09:11:19;;;;;;;9.87;5.63;;;31.90;37.70;;;;;;5059066;28;20481;-69
2021/03/31 09:13:47;;;;;;;16.20;6.00;;;32.70;35.50;;;;;;5044488;28;20444;-69
2021/03/31 09:16:15;;;;;;;11.63;6.10;;;33.10;35.60;;;;;;5036427;28;20499;-69
2021/03/31 09:18:43;;;;;;;29.10;8.60;;;33.40;36.00;;;;;;5055480;28;21182;-69
2021/03/31 09:21:11;;;;;;;14.53;6.37;;;33.30;35.50;;;;;;5054010;28;20541;-70
2021/03/31 09:23:44;;;;;;;8.60;6.50;;;33.30;35.20;;;;;;5059361;28;20487;-70
2021/03/31 09:26:11;;;;;;;6.67;5.70;;;33.50;34.70;;;;;;5055923;28;20507;-70
2021/03/31 09:28:38;;;;;;;5.60;4.17;;;33.50;35.50;;;;;;5056864;28;20490;-69
2021/03/31 09:31:09;;;;;;;10.93;4.10;;;33.60;33.10;;;;;;5053328;28;20459;-69
2021/03/31 09:33:40;;;;;;;5.03;4.40;;;33.10;32.20;;;;;;5056147;28;20474;-70
2021/03/31 09:36:12;;;;;;;7.73;5.80;;;32.80;33.00;;;;;;5057318;28;20482;-70
2021/03/31 09:38:38;;;;;;;8.93;7.60;;;32.80;33.90;;;;;;5057681;28;20475;-69
2021/03/31 09:41:07;;;;;;;11.53;6.20;;;32.80;33.20;;;;;;5062539;28;20491;-70
2021/03/31 09:43:34;;;;;;;14.43;7.90;;;33.20;33.50;;;;;;5063887;28;20576;-70
2021/03/31 09:46:01;;;;;;;9.10;7.57;;;32.50;34.70;;;;;;5064280;28;20467;-70
2021/03/31 09:48:30;;;;;;;11.73;5.73;;;33.10;33.60;;;;;;5055984;28;20464;-69
2021/03/31 09:51:02;;;;;;;8.27;6.03;;;32.90;34.80;;;;;;5060978;28;20454;-70
2021/03/31 09:53:28;;;;;;;7.33;5.47;;;33.00;32.60;;;;;;5053854;28;20460;-69
2021/03/31 09:55:55;;;;;;;8.80;5.43;;;32.50;33.80;;;;;;5052654;28;20477;-70
2021/03/31 09:58:24;;;;;;;9.90;4.47;;;32.20;34.80;;;;;;5042215;28;20471;-68
2021/03/31 10:00:52;;;;;;;4.93;4.43;;;33.70;33.70;;;;;;5052281;28;20985;-70
2021/03/31 10:03:19;;;;;;;5.77;4.30;;;33.60;31.20;;;;;;5053815;28;20541;-69
2021/03/31 10:05:50;;;;;;;6.13;4.77;;;33.90;31.20;;;;;;5058163;28;20460;-70
2021/03/31 10:08:24;;;;;;;4.30;3.70;;;34.00;31.40;;;;;;5058885;28;20870;-70
2021/03/31 10:10:52;;;;;;;5.53;3.67;;;34.30;30.80;;;;;;5054073;28;20478;-70
2021/03/31 10:13:20;;;;;;;10.60;4.10;;;33.90;31.10;;;;;;5058902;28;20997;-72
2021/03/31 10:15:58;;;;;;;5.63;3.77;;;34.10;30.90;;;;;;5056651;28;21006;-70
2021/03/31 10:18:27;;;;;;;5.30;3.83;;;34.50;30.00;;;;;;5056394;28;20553;-70
2021/03/31 10:20:58;;;;;;;5.93;5.43;;;34.30;30.50;;;;;;5054590;28;20589;-70
2021/03/31 10:23:28;;;;;;;9.63;4.70;;;35.30;30.00;;;;;;5058170;28;20455;-67
2021/03/31 10:26:16;;;;;;;6.13;4.13;;;35.80;30.60;;;;;;5061523;28;20462;-68
2021/03/31 10:28:42;;;;;;;9.00;4.50;;;35.70;30.00;;;;;;5058721;28;20966;-70
2021/03/31 10:31:20;;;;;;;9.57;4.10;;;35.70;30.00;;;;;;5061511;28;20470;-69
2021/03/31 10:33:47;;;;;;;13.60;4.30;;;35.00;30.70;;;;;;5056251;28;20790;-71
2021/03/31 10:36:45;;;;;;;9.07;4.47;;;34.80;30.70;;;;;;5062798;28;20482;-70
2021/03/31 10:50:37;;;;;;;5.37;3.37;;;35.10;30.00;;;;;;5065170;28;20553;-70
2021/03/31 10:53:05;;;;;;;9.67;4.50;;;35.00;29.10;;;;;;5070479;28;20474;-71
2021/03/31 10:55:32;;;;;;;5.90;3.40;;;34.90;31.10;;;;;;5063039;28;20513;-68
2021/03/31 10:57:59;;;;;;;4.50;4.10;;;35.30;29.00;;;;;;5041588;28;20476;-71
2021/03/31 11:00:26;;;;;;;10.30;4.90;;;35.50;28.70;;;;;;5041299;28;20458;-70
2021/03/31 11:02:54;;;;;;;7.23;4.40;;;35.30;29.60;;;;;;5073224;28;20460;-71
2021/03/31 11:05:20;;;;;;;6.27;3.40;;;35.50;29.50;;;;;;5064953;28;21030;-69
2021/03/31 11:07:47;;;;;;;4.53;3.20;;;35.90;29.40;;;;;;5067189;28;20529;-70
2021/03/31 11:10:15;;;;;;;4.70;3.50;;;37.00;28.00;;;;;;5054097;28;20460;-69
2021/03/31 11:12:42;;;;;;;4.00;3.37;;;36.20;27.90;;;;;;5062158;28;20458;-69
2021/03/31 11:15:12;;;;;;;5.73;3.27;;;35.80;28.40;;;;;;5059253;28;20471;-70
2021/03/31 11:17:45;;;;;;;4.73;3.63;;;36.90;28.40;;;;;;5068158;28;20478;-70
2021/03/31 11:20:25;;;;;;;8.60;5.10;;;37.40;29.30;;;;;;5054606;28;21002;-70
2021/03/31 11:25:52;;;;;;;3.40;2.70;;;37.50;28.30;;;;;;5034752;28;20520;-71
2021/03/31 11:28:19;;;;;;;5.23;4.03;;;37.20;28.00;;;;;;5061141;28;20461;-69
2021/03/31 11:30:46;;;;;;;4.87;3.20;;;37.10;27.60;;;;;;5071047;28;20485;-69
2021/03/31 11:33:13;;;;;;;7.63;3.60;;;36.30;28.10;;;;;;5046366;28;20611;-69
2021/03/31 11:35:40;;;;;;;3.27;2.87;;;35.90;28.40;;;;;;5058743;28;20487;-69
2021/03/31 11:38:07;;;;;;;4.27;3.60;;;37.10;29.30;;;;;;5058003;28;20852;-69
2021/03/31 11:40:34;;;;;;;5.10;3.80;;;37.20;27.50;;;;;;5053497;28;20521;-70
2021/03/31 11:43:02;;;;;;;6.27;4.50;;;36.50;27.90;;;;;;5054010;28;20460;-68
2021/03/31 11:45:29;;;;;;;7.47;3.60;;;36.50;27.80;;;;;;5054691;28;20473;-69
2021/03/31 11:47:56;;;;;;;7.10;3.70;;;36.50;27.90;;;;;;5054327;28;20478;-69
2021/03/31 11:50:25;;;;;;;5.23;4.20;;;36.40;28.40;;;;;;5034235;28;20467;-70
2021/03/31 11:52:53;;;;;;;6.20;4.07;;;36.80;27.60;;;;;;5039957;28;20464;-70
2021/03/31 11:55:20;;;;;;;5.57;3.13;;;37.80;28.40;;;;;;5055819;28;20459;-70
2021/03/31 11:57:46;;;;;;;5.97;4.00;;;37.60;29.20;;;;;;5051896;28;20510;-70
2021/03/31 12:00:15;;;;;;;7.03;5.20;;;38.30;28.40;;;;;;5050461;28;20471;-70
2021/03/31 12:02:43;;;;;;;5.07;4.20;;;39.20;27.90;;;;;;5058547;28;20458;-69
2021/03/31 12:05:10;;;;;;;9.53;4.50;;;39.00;27.20;;;;;;5057179;28;20470;-69
2021/03/31 12:07:37;;;;;;;6.80;5.03;;;39.50;27.50;;;;;;5054043;28;20518;-69
2021/03/31 12:10:07;;;;;;;5.10;4.60;;;39.40;26.80;;;;;;5036000;28;20867;-70
2021/03/31 12:12:35;;;;;;;5.53;3.93;;;38.50;27.30;;;;;;5054751;28;20495;-69
2021/03/31 12:15:05;;;;;;;6.60;4.17;;;38.10;27.20;;;;;;5055278;28;20938;-69
2021/03/31 12:17:32;;;;;;;5.57;3.70;;;38.30;27.80;;;;;;5049738;28;20986;-69
2021/03/31 12:19:59;;;;;;;10.43;3.90;;;39.20;27.80;;;;;;5058492;28;20531;-69
2021/03/31 12:22:26;;;;;;;9.27;4.13;;;39.60;27.10;;;;;;5041799;28;20463;-70
2021/03/31 12:24:53;;;;;;;5.07;3.63;;;39.40;27.00;;;;;;5029996;28;20972;-69
2021/03/31 12:27:20;;;;;;;4.17;3.07;;;39.50;26.00;;;;;;5043939;28;20489;-68
2021/03/31 12:29:47;;;;;;;4.23;3.37;;;39.20;26.80;;;;;;5055022;28;20482;-68
2021/03/31 12:32:15;;;;;;;4.50;2.90;;;39.30;26.50;;;;;;5050064;28;20467;-71
2021/03/31 12:34:44;;;;;;;3.37;3.07;;;39.60;27.30;;;;;;5068957;28;20456;-68
2021/03/31 12:37:11;;;;;;;7.23;3.23;;;39.80;25.70;;;;;;5066092;28;20502;-71
2021/03/31 12:39:38;;;;;;;3.97;3.00;;;39.30;26.00;;;;;;5055554;28;20487;-70
2021/03/31 12:42:05;;;;;;;7.50;3.90;;;39.10;26.30;;;;;;5050700;28;20837;-69
2021/03/31 12:44:32;;;;;;;4.93;2.93;;;38.70;26.30;;;;;;5057287;28;20456;-68
2021/03/31 12:46:59;;;;;;;4.43;3.50;;;38.70;27.20;;;;;;5051966;28;20487;-71
2021/03/31 12:49:26;;;;;;;5.00;3.43;;;38.90;26.00;;;;;;5050874;28;20513;-68
2021/03/31 12:51:56;;;;;;;3.53;3.00;;;39.10;26.20;;;;;;5052505;28;20466;-70
2021/03/31 12:54:27;;;;;;;6.37;3.90;;;39.00;26.10;;;;;;5041456;28;20661;-68
2021/03/31 12:56:54;;;;;;;4.07;3.13;;;39.10;26.30;;;;;;5040869;28;20471;-69
2021/03/31 12:59:21;;;;;;;7.37;3.47;;;38.10;26.30;;;;;;5049403;28;20478;-70
2021/03/31 13:01:48;;;;;;;13.37;4.13;;;36.90;26.70;;;;;;5055283;28;20464;-69
2021/03/31 13:04:15;;;;;;;6.00;2.63;;;36.90;26.90;;;;;;5047878;28;20454;-68
2021/03/31 13:06:42;;;;;;;4.20;2.30;;;37.10;26.30;;;;;;5027471;28;20489;-69
2021/03/31 13:09:10;;;;;;;4.17;2.20;;;37.50;26.20;;;;;;5064746;28;20455;-69